sensor_id;sensor_type;location;lat;lon;timestamp;temperature;humidity
851;DHT22;412;51.400;7.480;2022-08-14T00:02:25;24.10;71.20
851;DHT22;412;51.400;7.480;2022-08-14T00:04:51;24.10;70.90
851;DHT22;412;51.400;7.480;2022-08-14T00:07:17;24.00;71.10
851;DHT22;412;51.400;7.480;2022-08-14T00:09:44;24.00;71.80
851;DHT22;412;51.400;7.480;2022-08-14T00:12:10;24.00;72.00
851;DHT22;412;51.400;7.480;2022-08-14T00:14:37;24.00;72.90
851;DHT22;412;51.400;7.480;2022-08-14T00:17:03;23.90;72.80
851;DHT22;412;51.400;7.480;2022-08-14T00:19:29;23.90;73.30
851;DHT22;412;51.400;7.480;2022-08-14T00:21:55;23.90;73.50
851;DHT22;412;51.400;7.480;2022-08-14T00:24:21;23.80;74.00
851;DHT22;412;51.400;7.480;2022-08-14T00:26:47;23.80;74.40
851;DHT22;412;51.400;7.480;2022-08-14T00:29:13;23.70;74.80
851;DHT22;412;51.400;7.480;2022-08-14T00:31:39;23.70;75.30
851;DHT22;412;51.400;7.480;2022-08-14T00:34:05;23.60;75.50
851;DHT22;412;51.400;7.480;2022-08-14T00:36:30;23.60;76.20
851;DHT22;412;51.400;7.480;2022-08-14T00:38:56;23.60;76.40
851;DHT22;412;51.400;7.480;2022-08-14T00:41:22;23.50;76.70
851;DHT22;412;51.400;7.480;2022-08-14T00:43:48;23.50;77.00
851;DHT22;412;51.400;7.480;2022-08-14T00:46:13;23.50;77.90
851;DHT22;412;51.400;7.480;2022-08-14T00:48:39;23.40;77.70
851;DHT22;412;51.400;7.480;2022-08-14T00:51:09;23.30;78.30
851;DHT22;412;51.400;7.480;2022-08-14T00:53:36;23.30;79.00
851;DHT22;412;51.400;7.480;2022-08-14T00:56:03;23.30;79.20
851;DHT22;412;51.400;7.480;2022-08-14T00:58:29;23.20;79.70
851;DHT22;412;51.400;7.480;2022-08-14T01:00:55;23.20;80.10
851;DHT22;412;51.400;7.480;2022-08-14T01:03:22;23.10;80.30
851;DHT22;412;51.400;7.480;2022-08-14T01:05:50;23.10;80.40
851;DHT22;412;51.400;7.480;2022-08-14T01:08:27;23.10;80.80
851;DHT22;412;51.400;7.480;2022-08-14T01:10:55;23.10;81.20
851;DHT22;412;51.400;7.480;2022-08-14T01:13:30;23.10;81.50
851;DHT22;412;51.400;7.480;2022-08-14T01:15:59;23.00;81.40
851;DHT22;412;51.400;7.480;2022-08-14T01:18:27;23.00;81.90
851;DHT22;412;51.400;7.480;2022-08-14T01:21:12;23.00;82.40
851;DHT22;412;51.400;7.480;2022-08-14T01:23:44;23.00;83.00
851;DHT22;412;51.400;7.480;2022-08-14T01:26:11;22.90;82.80
851;DHT22;412;51.400;7.480;2022-08-14T01:28:38;22.90;83.00
851;DHT22;412;51.400;7.480;2022-08-14T01:31:12;22.80;82.90
851;DHT22;412;51.400;7.480;2022-08-14T01:33:41;22.80;83.70
851;DHT22;412;51.400;7.480;2022-08-14T01:36:10;22.80;83.60
851;DHT22;412;51.400;7.480;2022-08-14T01:38:36;22.70;83.70
851;DHT22;412;51.400;7.480;2022-08-14T01:41:05;22.70;83.80
851;DHT22;412;51.400;7.480;2022-08-14T01:43:32;22.70;84.10
851;DHT22;412;51.400;7.480;2022-08-14T01:46:04;22.70;84.30
851;DHT22;412;51.400;7.480;2022-08-14T01:48:31;22.60;84.90
851;DHT22;412;51.400;7.480;2022-08-14T01:51:00;22.70;85.30
851;DHT22;412;51.400;7.480;2022-08-14T01:53:27;22.80;85.60
851;DHT22;412;51.400;7.480;2022-08-14T01:56:03;22.80;85.80
851;DHT22;412;51.400;7.480;2022-08-14T01:58:29;22.80;86.20
851;DHT22;412;51.400;7.480;2022-08-14T02:00:56;22.80;86.50
851;DHT22;412;51.400;7.480;2022-08-14T02:03:28;22.90;86.70
851;DHT22;412;51.400;7.480;2022-08-14T02:06:01;22.90;87.20
851;DHT22;412;51.400;7.480;2022-08-14T02:08:27;22.90;87.00
851;DHT22;412;51.400;7.480;2022-08-14T02:10:57;22.90;87.40
851;DHT22;412;51.400;7.480;2022-08-14T02:13:49;22.80;87.20
851;DHT22;412;51.400;7.480;2022-08-14T02:16:23;22.80;87.40
851;DHT22;412;51.400;7.480;2022-08-14T02:18:53;22.70;87.80
851;DHT22;412;51.400;7.480;2022-08-14T02:21:19;22.80;87.90
851;DHT22;412;51.400;7.480;2022-08-14T02:23:46;22.70;88.10
851;DHT22;412;51.400;7.480;2022-08-14T02:26:21;22.70;88.60
851;DHT22;412;51.400;7.480;2022-08-14T02:28:49;22.60;89.00
851;DHT22;412;51.400;7.480;2022-08-14T02:31:15;22.60;89.70
851;DHT22;412;51.400;7.480;2022-08-14T02:33:41;22.60;90.10
851;DHT22;412;51.400;7.480;2022-08-14T02:36:08;22.50;90.00
851;DHT22;412;51.400;7.480;2022-08-14T02:38:35;22.50;90.30
851;DHT22;412;51.400;7.480;2022-08-14T02:41:00;22.40;90.60
851;DHT22;412;51.400;7.480;2022-08-14T02:43:26;22.40;90.80
851;DHT22;412;51.400;7.480;2022-08-14T02:45:55;22.40;90.70
851;DHT22;412;51.400;7.480;2022-08-14T02:48:21;22.40;90.80
851;DHT22;412;51.400;7.480;2022-08-14T02:50:47;22.40;90.80
851;DHT22;412;51.400;7.480;2022-08-14T02:53:13;22.40;91.00
851;DHT22;412;51.400;7.480;2022-08-14T02:55:41;22.40;91.20
851;DHT22;412;51.400;7.480;2022-08-14T02:58:08;22.40;91.20
851;DHT22;412;51.400;7.480;2022-08-14T03:00:34;22.40;91.20
851;DHT22;412;51.400;7.480;2022-08-14T03:03:03;22.40;91.40
851;DHT22;412;51.400;7.480;2022-08-14T03:05:29;22.50;91.60
851;DHT22;412;51.400;7.480;2022-08-14T03:08:05;22.50;91.70
851;DHT22;412;51.400;7.480;2022-08-14T03:10:31;22.40;91.60
851;DHT22;412;51.400;7.480;2022-08-14T03:12:57;22.50;91.60
851;DHT22;412;51.400;7.480;2022-08-14T03:15:23;22.40;91.80
851;DHT22;412;51.400;7.480;2022-08-14T03:17:49;22.40;91.90
851;DHT22;412;51.400;7.480;2022-08-14T03:20:17;22.40;91.90
851;DHT22;412;51.400;7.480;2022-08-14T03:22:43;22.30;92.20
851;DHT22;412;51.400;7.480;2022-08-14T03:25:09;22.10;92.70
851;DHT22;412;51.400;7.480;2022-08-14T03:27:37;22.10;93.00
851;DHT22;412;51.400;7.480;2022-08-14T03:30:03;22.00;93.20
851;DHT22;412;51.400;7.480;2022-08-14T03:32:29;22.00;93.40
851;DHT22;412;51.400;7.480;2022-08-14T03:34:58;22.00;93.50
851;DHT22;412;51.400;7.480;2022-08-14T03:37:25;22.00;93.70
851;DHT22;412;51.400;7.480;2022-08-14T03:39:53;22.10;93.80
851;DHT22;412;51.400;7.480;2022-08-14T03:42:19;22.20;93.70
851;DHT22;412;51.400;7.480;2022-08-14T03:44:46;22.20;93.60
851;DHT22;412;51.400;7.480;2022-08-14T03:47:13;22.20;93.70
851;DHT22;412;51.400;7.480;2022-08-14T03:49:38;22.20;93.60
851;DHT22;412;51.400;7.480;2022-08-14T03:52:05;22.20;93.70
851;DHT22;412;51.400;7.480;2022-08-14T03:54:31;22.20;93.70
851;DHT22;412;51.400;7.480;2022-08-14T03:57:00;22.20;93.80
851;DHT22;412;51.400;7.480;2022-08-14T03:59:26;22.20;93.90
851;DHT22;412;51.400;7.480;2022-08-14T04:01:52;22.20;94.00
851;DHT22;412;51.400;7.480;2022-08-14T04:04:18;22.20;94.20
851;DHT22;412;51.400;7.480;2022-08-14T04:06:43;22.10;94.20
851;DHT22;412;51.400;7.480;2022-08-14T04:09:09;22.10;94.40
851;DHT22;412;51.400;7.480;2022-08-14T04:11:36;22.10;94.50
851;DHT22;412;51.400;7.480;2022-08-14T04:14:03;22.10;94.30
851;DHT22;412;51.400;7.480;2022-08-14T04:16:30;22.10;94.30
851;DHT22;412;51.400;7.480;2022-08-14T04:18:57;22.00;94.50
851;DHT22;412;51.400;7.480;2022-08-14T04:21:25;22.00;94.90
851;DHT22;412;51.400;7.480;2022-08-14T04:23:55;22.00;95.00
851;DHT22;412;51.400;7.480;2022-08-14T04:26:23;22.00;95.00
851;DHT22;412;51.400;7.480;2022-08-14T04:28:50;22.00;94.90
851;DHT22;412;51.400;7.480;2022-08-14T04:31:17;22.00;95.00
851;DHT22;412;51.400;7.480;2022-08-14T04:33:44;22.00;95.00
851;DHT22;412;51.400;7.480;2022-08-14T04:36:09;22.00;95.10
851;DHT22;412;51.400;7.480;2022-08-14T04:38:35;22.00;95.10
851;DHT22;412;51.400;7.480;2022-08-14T04:41:19;22.00;95.20
851;DHT22;412;51.400;7.480;2022-08-14T04:44:04;22.00;95.10
851;DHT22;412;51.400;7.480;2022-08-14T04:46:33;22.00;95.30
851;DHT22;412;51.400;7.480;2022-08-14T04:48:59;22.00;95.40
851;DHT22;412;51.400;7.480;2022-08-14T04:51:27;22.00;95.30
851;DHT22;412;51.400;7.480;2022-08-14T04:53:54;22.00;95.30
851;DHT22;412;51.400;7.480;2022-08-14T04:56:22;22.00;95.80
851;DHT22;412;51.400;7.480;2022-08-14T04:59:00;21.90;95.40
851;DHT22;412;51.400;7.480;2022-08-14T05:01:26;21.90;95.80
851;DHT22;412;51.400;7.480;2022-08-14T05:03:52;21.90;95.70
851;DHT22;412;51.400;7.480;2022-08-14T05:06:19;21.90;95.80
851;DHT22;412;51.400;7.480;2022-08-14T05:08:46;21.90;95.70
851;DHT22;412;51.400;7.480;2022-08-14T05:11:12;22.00;95.60
851;DHT22;412;51.400;7.480;2022-08-14T05:13:39;22.00;95.60
851;DHT22;412;51.400;7.480;2022-08-14T05:16:05;22.00;95.50
851;DHT22;412;51.400;7.480;2022-08-14T05:18:34;22.00;95.80
851;DHT22;412;51.400;7.480;2022-08-14T05:21:03;22.00;95.70
851;DHT22;412;51.400;7.480;2022-08-14T05:23:33;22.10;95.80
851;DHT22;412;51.400;7.480;2022-08-14T05:26:00;22.10;95.60
851;DHT22;412;51.400;7.480;2022-08-14T05:28:38;22.10;95.70
851;DHT22;412;51.400;7.480;2022-08-14T05:31:05;22.00;95.80
851;DHT22;412;51.400;7.480;2022-08-14T05:33:33;22.10;95.90
851;DHT22;412;51.400;7.480;2022-08-14T05:36:01;22.10;95.90
851;DHT22;412;51.400;7.480;2022-08-14T05:38:33;22.00;96.20
851;DHT22;412;51.400;7.480;2022-08-14T05:41:01;22.10;96.40
851;DHT22;412;51.400;7.480;2022-08-14T05:43:27;22.10;96.20
851;DHT22;412;51.400;7.480;2022-08-14T05:45:54;22.20;96.10
851;DHT22;412;51.400;7.480;2022-08-14T05:48:20;22.20;96.10
851;DHT22;412;51.400;7.480;2022-08-14T05:50:45;22.30;96.00
851;DHT22;412;51.400;7.480;2022-08-14T05:53:11;22.40;95.90
851;DHT22;412;51.400;7.480;2022-08-14T05:55:37;22.40;96.00
851;DHT22;412;51.400;7.480;2022-08-14T05:58:06;22.50;96.00
851;DHT22;412;51.400;7.480;2022-08-14T06:00:38;22.60;96.00
851;DHT22;412;51.400;7.480;2022-08-14T06:03:07;22.70;96.20
851;DHT22;412;51.400;7.480;2022-08-14T06:05:33;22.70;96.00
851;DHT22;412;51.400;7.480;2022-08-14T06:07:59;22.80;95.90
851;DHT22;412;51.400;7.480;2022-08-14T06:10:26;22.80;95.80
851;DHT22;412;51.400;7.480;2022-08-14T06:12:52;22.90;95.80
851;DHT22;412;51.400;7.480;2022-08-14T06:15:18;23.10;96.00
851;DHT22;412;51.400;7.480;2022-08-14T06:17:48;23.20;95.40
851;DHT22;412;51.400;7.480;2022-08-14T06:20:15;23.30;95.10
851;DHT22;412;51.400;7.480;2022-08-14T06:22:42;23.50;94.80
851;DHT22;412;51.400;7.480;2022-08-14T06:25:09;23.60;94.60
851;DHT22;412;51.400;7.480;2022-08-14T06:27:46;23.60;94.30
851;DHT22;412;51.400;7.480;2022-08-14T06:30:20;23.60;94.30
851;DHT22;412;51.400;7.480;2022-08-14T06:32:46;23.70;94.30
851;DHT22;412;51.400;7.480;2022-08-14T06:35:13;23.80;94.20
851;DHT22;412;51.400;7.480;2022-08-14T06:40:06;24.00;93.80
851;DHT22;412;51.400;7.480;2022-08-14T06:42:33;24.10;93.70
851;DHT22;412;51.400;7.480;2022-08-14T06:44:58;24.20;93.50
851;DHT22;412;51.400;7.480;2022-08-14T06:47:26;24.30;93.40
851;DHT22;412;51.400;7.480;2022-08-14T06:49:51;24.30;93.20
851;DHT22;412;51.400;7.480;2022-08-14T06:52:17;24.50;93.10
851;DHT22;412;51.400;7.480;2022-08-14T06:54:44;24.50;92.80
851;DHT22;412;51.400;7.480;2022-08-14T06:57:10;24.60;92.60
851;DHT22;412;51.400;7.480;2022-08-14T06:59:36;24.70;92.60
851;DHT22;412;51.400;7.480;2022-08-14T07:02:02;24.80;92.60
851;DHT22;412;51.400;7.480;2022-08-14T07:04:46;24.80;92.50
851;DHT22;412;51.400;7.480;2022-08-14T07:07:38;24.80;92.90
851;DHT22;412;51.400;7.480;2022-08-14T07:10:05;24.80;92.30
851;DHT22;412;51.400;7.480;2022-08-14T07:12:31;24.80;92.50
851;DHT22;412;51.400;7.480;2022-08-14T07:14:57;24.80;92.70
851;DHT22;412;51.400;7.480;2022-08-14T07:17:23;24.90;92.50
851;DHT22;412;51.400;7.480;2022-08-14T07:19:49;24.90;92.40
851;DHT22;412;51.400;7.480;2022-08-14T07:22:14;24.90;92.70
851;DHT22;412;51.400;7.480;2022-08-14T07:24:41;25.00;92.50
851;DHT22;412;51.400;7.480;2022-08-14T07:27:06;25.10;92.50
851;DHT22;412;51.400;7.480;2022-08-14T07:29:32;25.20;92.30
851;DHT22;412;51.400;7.480;2022-08-14T07:31:58;25.30;91.40
851;DHT22;412;51.400;7.480;2022-08-14T07:34:23;25.30;91.30
851;DHT22;412;51.400;7.480;2022-08-14T07:36:49;25.50;91.60
851;DHT22;412;51.400;7.480;2022-08-14T07:39:15;25.60;91.40
851;DHT22;412;51.400;7.480;2022-08-14T07:41:40;25.60;91.40
851;DHT22;412;51.400;7.480;2022-08-14T07:44:09;25.70;91.20
851;DHT22;412;51.400;7.480;2022-08-14T07:46:39;25.80;91.00
851;DHT22;412;51.400;7.480;2022-08-14T07:49:05;25.80;91.00
851;DHT22;412;51.400;7.480;2022-08-14T07:51:32;25.90;91.50
851;DHT22;412;51.400;7.480;2022-08-14T07:53:58;25.90;91.20
851;DHT22;412;51.400;7.480;2022-08-14T07:56:24;26.00;90.70
851;DHT22;412;51.400;7.480;2022-08-14T07:58:50;26.00;90.50
851;DHT22;412;51.400;7.480;2022-08-14T08:01:17;26.10;90.70
851;DHT22;412;51.400;7.480;2022-08-14T08:03:45;26.20;90.70
851;DHT22;412;51.400;7.480;2022-08-14T08:06:15;26.20;90.50
851;DHT22;412;51.400;7.480;2022-08-14T08:08:42;26.30;90.60
851;DHT22;412;51.400;7.480;2022-08-14T08:11:10;26.40;90.40
851;DHT22;412;51.400;7.480;2022-08-14T08:13:41;26.50;90.00
851;DHT22;412;51.400;7.480;2022-08-14T08:16:08;26.60;89.50
851;DHT22;412;51.400;7.480;2022-08-14T08:18:34;26.70;88.20
851;DHT22;412;51.400;7.480;2022-08-14T08:21:00;26.70;88.60
851;DHT22;412;51.400;7.480;2022-08-14T08:23:27;26.80;88.00
851;DHT22;412;51.400;7.480;2022-08-14T08:25:54;26.90;88.20
851;DHT22;412;51.400;7.480;2022-08-14T08:28:24;27.00;87.10
851;DHT22;412;51.400;7.480;2022-08-14T08:31:00;27.10;86.80
851;DHT22;412;51.400;7.480;2022-08-14T08:33:31;27.20;86.20
851;DHT22;412;51.400;7.480;2022-08-14T08:36:04;27.40;86.10
851;DHT22;412;51.400;7.480;2022-08-14T08:38:31;27.40;84.40
851;DHT22;412;51.400;7.480;2022-08-14T08:40:58;27.60;85.10
851;DHT22;412;51.400;7.480;2022-08-14T08:43:32;27.60;83.60
851;DHT22;412;51.400;7.480;2022-08-14T08:46:04;27.60;84.70
851;DHT22;412;51.400;7.480;2022-08-14T08:48:43;27.70;85.60
851;DHT22;412;51.400;7.480;2022-08-14T08:51:37;27.90;85.20
851;DHT22;412;51.400;7.480;2022-08-14T08:54:12;28.10;84.90
851;DHT22;412;51.400;7.480;2022-08-14T08:56:44;28.20;83.60
851;DHT22;412;51.400;7.480;2022-08-14T08:59:22;28.40;83.40
851;DHT22;412;51.400;7.480;2022-08-14T09:01:50;28.50;82.20
851;DHT22;412;51.400;7.480;2022-08-14T09:04:18;28.60;82.30
851;DHT22;412;51.400;7.480;2022-08-14T09:06:46;28.70;81.40
851;DHT22;412;51.400;7.480;2022-08-14T09:09:23;28.90;80.50
851;DHT22;412;51.400;7.480;2022-08-14T09:11:50;29.00;80.50
851;DHT22;412;51.400;7.480;2022-08-14T09:14:21;29.20;79.60
851;DHT22;412;51.400;7.480;2022-08-14T09:16:51;29.30;77.80
851;DHT22;412;51.400;7.480;2022-08-14T09:19:17;29.40;76.60
851;DHT22;412;51.400;7.480;2022-08-14T09:21:43;29.50;76.10
851;DHT22;412;51.400;7.480;2022-08-14T09:24:09;29.60;75.80
851;DHT22;412;51.400;7.480;2022-08-14T09:26:36;29.80;75.30
851;DHT22;412;51.400;7.480;2022-08-14T09:29:03;29.90;74.90
851;DHT22;412;51.400;7.480;2022-08-14T09:31:31;30.00;73.40
851;DHT22;412;51.400;7.480;2022-08-14T09:42:43;30.40;69.70
851;DHT22;412;51.400;7.480;2022-08-14T09:45:16;30.50;68.00
851;DHT22;412;51.400;7.480;2022-08-14T09:47:54;30.50;64.70
851;DHT22;412;51.400;7.480;2022-08-14T09:50:47;30.70;66.20
851;DHT22;412;51.400;7.480;2022-08-14T09:53:16;30.80;65.80
851;DHT22;412;51.400;7.480;2022-08-14T09:55:43;30.90;65.70
851;DHT22;412;51.400;7.480;2022-08-14T09:58:19;31.10;63.70
851;DHT22;412;51.400;7.480;2022-08-14T10:00:55;31.20;63.50
851;DHT22;412;51.400;7.480;2022-08-14T10:03:34;31.30;64.30
851;DHT22;412;51.400;7.480;2022-08-14T10:06:14;31.50;64.20
851;DHT22;412;51.400;7.480;2022-08-14T10:08:48;31.60;62.60
851;DHT22;412;51.400;7.480;2022-08-14T10:11:16;31.70;62.50
851;DHT22;412;51.400;7.480;2022-08-14T10:13:45;31.80;61.20
851;DHT22;412;51.400;7.480;2022-08-14T10:16:12;31.90;62.20
851;DHT22;412;51.400;7.480;2022-08-14T10:18:39;32.00;61.80
851;DHT22;412;51.400;7.480;2022-08-14T10:21:08;32.00;59.00
851;DHT22;412;51.400;7.480;2022-08-14T10:23:45;32.00;60.70
851;DHT22;412;51.400;7.480;2022-08-14T10:26:16;32.20;60.30
851;DHT22;412;51.400;7.480;2022-08-14T10:28:47;32.20;58.70
851;DHT22;412;51.400;7.480;2022-08-14T10:31:24;32.20;58.20
851;DHT22;412;51.400;7.480;2022-08-14T10:33:58;32.30;59.10
851;DHT22;412;51.400;7.480;2022-08-14T10:36:35;32.40;58.40
851;DHT22;412;51.400;7.480;2022-08-14T10:39:05;32.50;58.60
851;DHT22;412;51.400;7.480;2022-08-14T10:41:37;32.60;59.50
851;DHT22;412;51.400;7.480;2022-08-14T10:44:16;32.70;57.20
851;DHT22;412;51.400;7.480;2022-08-14T10:49:17;32.60;58.90
851;DHT22;412;51.400;7.480;2022-08-14T10:52:20;32.60;57.80
851;DHT22;412;51.400;7.480;2022-08-14T10:54:44;32.60;58.10
851;DHT22;412;51.400;7.480;2022-08-14T10:59:54;32.70;58.70
851;DHT22;412;51.400;7.480;2022-08-14T11:02:23;32.80;57.00
851;DHT22;412;51.400;7.480;2022-08-14T11:05:06;32.80;57.40
851;DHT22;412;51.400;7.480;2022-08-14T11:07:34;32.90;57.10
851;DHT22;412;51.400;7.480;2022-08-14T11:12:41;32.70;56.60
851;DHT22;412;51.400;7.480;2022-08-14T11:15:11;32.60;56.80
851;DHT22;412;51.400;7.480;2022-08-14T11:17:37;32.50;56.70
851;DHT22;412;51.400;7.480;2022-08-14T11:20:07;32.40;57.30
851;DHT22;412;51.400;7.480;2022-08-14T11:22:33;32.50;57.00
851;DHT22;412;51.400;7.480;2022-08-14T11:25:04;32.50;58.20
851;DHT22;412;51.400;7.480;2022-08-14T11:27:32;32.50;56.50
851;DHT22;412;51.400;7.480;2022-08-14T11:30:01;32.60;56.20
851;DHT22;412;51.400;7.480;2022-08-14T11:32:28;32.50;56.10
851;DHT22;412;51.400;7.480;2022-08-14T11:34:56;32.20;56.40
851;DHT22;412;51.400;7.480;2022-08-14T11:37:22;32.10;57.80
851;DHT22;412;51.400;7.480;2022-08-14T11:39:48;32.00;56.90
851;DHT22;412;51.400;7.480;2022-08-14T11:42:22;32.00;58.00
851;DHT22;412;51.400;7.480;2022-08-14T11:44:50;32.00;61.30
851;DHT22;412;51.400;7.480;2022-08-14T11:47:17;32.00;58.50
851;DHT22;412;51.400;7.480;2022-08-14T11:49:47;32.00;57.70
851;DHT22;412;51.400;7.480;2022-08-14T11:52:16;31.90;58.60
851;DHT22;412;51.400;7.480;2022-08-14T11:54:56;31.80;57.80
851;DHT22;412;51.400;7.480;2022-08-14T11:57:22;31.80;58.70
851;DHT22;412;51.400;7.480;2022-08-14T11:59:47;31.80;58.00
851;DHT22;412;51.400;7.480;2022-08-14T12:02:15;31.80;58.80
851;DHT22;412;51.400;7.480;2022-08-14T12:04:49;31.90;57.70
851;DHT22;412;51.400;7.480;2022-08-14T12:07:15;31.90;57.70
851;DHT22;412;51.400;7.480;2022-08-14T12:09:43;31.80;57.20
851;DHT22;412;51.400;7.480;2022-08-14T12:12:18;31.80;57.70
851;DHT22;412;51.400;7.480;2022-08-14T12:17:18;31.50;57.40
851;DHT22;412;51.400;7.480;2022-08-14T12:19:52;31.30;57.60
851;DHT22;412;51.400;7.480;2022-08-14T12:22:34;30.80;58.00
851;DHT22;412;51.400;7.480;2022-08-14T12:25:03;30.70;59.10
851;DHT22;412;51.400;7.480;2022-08-14T12:27:38;30.70;60.10
851;DHT22;412;51.400;7.480;2022-08-14T12:30:05;30.70;59.50
851;DHT22;412;51.400;7.480;2022-08-14T12:32:39;30.50;59.10
851;DHT22;412;51.400;7.480;2022-08-14T12:35:05;30.50;60.80
851;DHT22;412;51.400;7.480;2022-08-14T12:37:31;30.40;62.00
851;DHT22;412;51.400;7.480;2022-08-14T12:40:14;30.40;60.20
851;DHT22;412;51.400;7.480;2022-08-14T12:42:40;30.30;62.10
851;DHT22;412;51.400;7.480;2022-08-14T12:45:08;30.20;62.30
851;DHT22;412;51.400;7.480;2022-08-14T12:47:36;30.20;62.70
851;DHT22;412;51.400;7.480;2022-08-14T12:50:04;30.20;62.60
851;DHT22;412;51.400;7.480;2022-08-14T12:52:34;30.10;61.00
851;DHT22;412;51.400;7.480;2022-08-14T12:55:19;30.20;59.70
851;DHT22;412;51.400;7.480;2022-08-14T12:57:46;30.30;58.40
851;DHT22;412;51.400;7.480;2022-08-14T13:00:15;30.50;59.20
851;DHT22;412;51.400;7.480;2022-08-14T13:02:48;30.70;59.20
851;DHT22;412;51.400;7.480;2022-08-14T13:05:19;30.80;60.20
851;DHT22;412;51.400;7.480;2022-08-14T13:07:47;30.90;59.30
851;DHT22;412;51.400;7.480;2022-08-14T13:10:17;31.00;57.60
851;DHT22;412;51.400;7.480;2022-08-14T13:12:45;30.90;56.60
851;DHT22;412;51.400;7.480;2022-08-14T13:15:12;30.90;57.40
851;DHT22;412;51.400;7.480;2022-08-14T13:17:44;30.90;58.30
851;DHT22;412;51.400;7.480;2022-08-14T13:20:12;30.90;57.50
851;DHT22;412;51.400;7.480;2022-08-14T13:22:39;31.00;56.40
851;DHT22;412;51.400;7.480;2022-08-14T13:25:08;31.00;57.50
851;DHT22;412;51.400;7.480;2022-08-14T13:27:35;31.00;58.00
851;DHT22;412;51.400;7.480;2022-08-14T13:30:04;30.70;58.50
851;DHT22;412;51.400;7.480;2022-08-14T13:32:31;30.70;58.70
851;DHT22;412;51.400;7.480;2022-08-14T13:34:57;30.70;56.70
851;DHT22;412;51.400;7.480;2022-08-14T13:37:23;30.90;58.50
851;DHT22;412;51.400;7.480;2022-08-14T13:39:53;31.00;58.20
851;DHT22;412;51.400;7.480;2022-08-14T13:42:20;30.80;58.30
851;DHT22;412;51.400;7.480;2022-08-14T13:44:51;30.70;59.20
851;DHT22;412;51.400;7.480;2022-08-14T13:47:20;30.60;59.30
851;DHT22;412;51.400;7.480;2022-08-14T13:49:47;30.20;58.90
851;DHT22;412;51.400;7.480;2022-08-14T13:52:17;30.20;59.90
851;DHT22;412;51.400;7.480;2022-08-14T13:54:48;30.10;61.60
851;DHT22;412;51.400;7.480;2022-08-14T13:57:15;30.10;60.30
851;DHT22;412;51.400;7.480;2022-08-14T13:59:46;30.10;60.00
851;DHT22;412;51.400;7.480;2022-08-14T14:02:13;30.00;59.70
851;DHT22;412;51.400;7.480;2022-08-14T14:04:41;30.00;60.00
851;DHT22;412;51.400;7.480;2022-08-14T14:07:10;29.90;58.70
851;DHT22;412;51.400;7.480;2022-08-14T14:09:40;30.00;59.00
851;DHT22;412;51.400;7.480;2022-08-14T14:12:06;30.00;61.80
851;DHT22;412;51.400;7.480;2022-08-14T14:14:35;30.00;58.30
851;DHT22;412;51.400;7.480;2022-08-14T14:17:03;30.10;59.00
851;DHT22;412;51.400;7.480;2022-08-14T14:19:30;30.10;59.80
851;DHT22;412;51.400;7.480;2022-08-14T14:22:00;30.00;60.80
851;DHT22;412;51.400;7.480;2022-08-14T14:24:28;30.00;61.80
851;DHT22;412;51.400;7.480;2022-08-14T14:27:00;30.00;60.90
851;DHT22;412;51.400;7.480;2022-08-14T14:29:29;30.00;60.10
851;DHT22;412;51.400;7.480;2022-08-14T14:31:57;30.00;61.10
851;DHT22;412;51.400;7.480;2022-08-14T14:34:25;30.00;62.40
851;DHT22;412;51.400;7.480;2022-08-14T14:36:51;29.90;60.50
851;DHT22;412;51.400;7.480;2022-08-14T14:39:24;29.90;60.00
851;DHT22;412;51.400;7.480;2022-08-14T14:41:55;29.90;59.30
851;DHT22;412;51.400;7.480;2022-08-14T14:44:23;30.10;59.90
851;DHT22;412;51.400;7.480;2022-08-14T14:46:50;30.10;59.50
851;DHT22;412;51.400;7.480;2022-08-14T14:49:18;30.30;60.00
851;DHT22;412;51.400;7.480;2022-08-14T14:51:45;30.40;59.20
851;DHT22;412;51.400;7.480;2022-08-14T14:54:12;30.50;59.00
851;DHT22;412;51.400;7.480;2022-08-14T14:56:41;30.50;57.20
851;DHT22;412;51.400;7.480;2022-08-14T14:59:10;30.50;56.80
851;DHT22;412;51.400;7.480;2022-08-14T15:01:36;30.40;56.70
851;DHT22;412;51.400;7.480;2022-08-14T15:04:03;30.40;56.50
851;DHT22;412;51.400;7.480;2022-08-14T15:06:31;30.50;59.30
851;DHT22;412;51.400;7.480;2022-08-14T15:08:57;30.50;58.00
851;DHT22;412;51.400;7.480;2022-08-14T15:11:23;30.60;58.80
851;DHT22;412;51.400;7.480;2022-08-14T15:13:51;30.70;58.90
851;DHT22;412;51.400;7.480;2022-08-14T15:16:17;30.60;56.30
851;DHT22;412;51.400;7.480;2022-08-14T15:18:42;30.70;57.80
851;DHT22;412;51.400;7.480;2022-08-14T15:21:11;30.80;57.00
851;DHT22;412;51.400;7.480;2022-08-14T15:23:38;30.80;56.30
851;DHT22;412;51.400;7.480;2022-08-14T15:26:04;30.90;57.10
851;DHT22;412;51.400;7.480;2022-08-14T15:28:30;31.00;57.10
851;DHT22;412;51.400;7.480;2022-08-14T15:30:59;31.00;57.30
851;DHT22;412;51.400;7.480;2022-08-14T15:33:26;30.90;58.60
851;DHT22;412;51.400;7.480;2022-08-14T15:36:10;30.80;58.10
851;DHT22;412;51.400;7.480;2022-08-14T15:38:36;30.70;57.10
851;DHT22;412;51.400;7.480;2022-08-14T15:41:03;30.70;57.20
851;DHT22;412;51.400;7.480;2022-08-14T15:43:31;30.70;57.90
851;DHT22;412;51.400;7.480;2022-08-14T15:46:02;30.70;58.30
851;DHT22;412;51.400;7.480;2022-08-14T15:48:29;30.70;58.50
851;DHT22;412;51.400;7.480;2022-08-14T15:50:56;30.50;58.90
851;DHT22;412;51.400;7.480;2022-08-14T15:53:23;30.50;59.00
851;DHT22;412;51.400;7.480;2022-08-14T15:55:50;30.60;58.80
851;DHT22;412;51.400;7.480;2022-08-14T15:58:17;30.60;57.80
851;DHT22;412;51.400;7.480;2022-08-14T16:00:42;30.60;58.00
851;DHT22;412;51.400;7.480;2022-08-14T16:03:27;30.60;57.90
851;DHT22;412;51.400;7.480;2022-08-14T16:05:53;30.50;58.60
851;DHT22;412;51.400;7.480;2022-08-14T16:08:20;30.20;58.20
851;DHT22;412;51.400;7.480;2022-08-14T16:10:46;30.10;59.00
851;DHT22;412;51.400;7.480;2022-08-14T16:13:15;30.10;59.60
851;DHT22;412;51.400;7.480;2022-08-14T16:15:41;30.10;62.60
851;DHT22;412;51.400;7.480;2022-08-14T16:18:11;30.10;63.70
851;DHT22;412;51.400;7.480;2022-08-14T16:20:40;30.10;63.80
851;DHT22;412;51.400;7.480;2022-08-14T16:23:09;30.00;64.20
851;DHT22;412;51.400;7.480;2022-08-14T16:25:38;30.00;63.30
851;DHT22;412;51.400;7.480;2022-08-14T16:28:05;30.00;64.30
851;DHT22;412;51.400;7.480;2022-08-14T16:30:31;30.00;65.00
851;DHT22;412;51.400;7.480;2022-08-14T16:32:58;30.00;65.40
851;DHT22;412;51.400;7.480;2022-08-14T16:35:26;30.00;66.50
851;DHT22;412;51.400;7.480;2022-08-14T16:37:52;30.00;65.90
851;DHT22;412;51.400;7.480;2022-08-14T16:40:18;29.90;66.00
851;DHT22;412;51.400;7.480;2022-08-14T16:42:46;29.90;64.20
851;DHT22;412;51.400;7.480;2022-08-14T16:45:15;29.90;64.90
851;DHT22;412;51.400;7.480;2022-08-14T16:47:41;29.90;64.70
851;DHT22;412;51.400;7.480;2022-08-14T16:50:07;29.90;64.00
851;DHT22;412;51.400;7.480;2022-08-14T16:52:37;29.90;64.40
851;DHT22;412;51.400;7.480;2022-08-14T16:55:07;29.80;64.10
851;DHT22;412;51.400;7.480;2022-08-14T16:57:33;29.80;62.80
851;DHT22;412;51.400;7.480;2022-08-14T17:00:24;29.80;64.80
851;DHT22;412;51.400;7.480;2022-08-14T17:02:59;29.80;65.10
851;DHT22;412;51.400;7.480;2022-08-14T17:05:26;29.70;65.10
851;DHT22;412;51.400;7.480;2022-08-14T17:13:21;29.70;68.00